sensor_id;sensor_type;location;lat;lon;timestamp;P1;durP1;ratioP1;P2;durP2;ratioP2
76729;SDS011;65653;53.106;18.046;2023-04-01T00:00:30;43.10;;;19.90;;
76729;SDS011;65653;53.106;18.046;2023-04-01T00:03:16;39.00;;;15.60;;
76729;SDS011;65653;53.106;18.046;2023-04-01T00:05:49;35.90;;;15.50;;
76729;SDS011;65653;53.106;18.046;2023-04-01T00:08:18;43.30;;;17.80;;
76729;SDS011;65653;53.106;18.046;2023-04-01T00:10:44;48.40;;;22.90;;
76729;SDS011;65653;53.106;18.046;2023-04-01T00:13:11;49.20;;;20.70;;
76729;SDS011;65653;53.106;18.046;2023-04-01T00:15:37;47.80;;;20.90;;
76729;SDS011;65653;53.106;18.046;2023-04-01T00:18:03;54.90;;;24.10;;
76729;SDS011;65653;53.106;18.046;2023-04-01T00:20:30;55.10;;;26.10;;
76729;SDS011;65653;53.106;18.046;2023-04-01T00:22:56;54.20;;;24.20;;
76729;SDS011;65653;53.106;18.046;2023-04-01T00:25:22;48.50;;;23.20;;
76729;SDS011;65653;53.106;18.046;2023-04-01T00:27:50;55.20;;;25.30;;
76729;SDS011;65653;53.106;18.046;2023-04-01T00:30:16;55.70;;;26.00;;
76729;SDS011;65653;53.106;18.046;2023-04-01T00:32:42;57.00;;;26.60;;
76729;SDS011;65653;53.106;18.046;2023-04-01T00:35:08;60.30;;;27.60;;
76729;SDS011;65653;53.106;18.046;2023-04-01T00:37:35;59.90;;;27.20;;
76729;SDS011;65653;53.106;18.046;2023-04-01T00:40:05;54.50;;;26.90;;
76729;SDS011;65653;53.106;18.046;2023-04-01T00:42:51;60.20;;;27.00;;
76729;SDS011;65653;53.106;18.046;2023-04-01T00:45:23;61.50;;;27.70;;
76729;SDS011;65653;53.106;18.046;2023-04-01T00:47:50;60.90;;;27.50;;
76729;SDS011;65653;53.106;18.046;2023-04-01T00:50:16;59.10;;;28.40;;
76729;SDS011;65653;53.106;18.046;2023-04-01T00:52:42;60.00;;;26.60;;
76729;SDS011;65653;53.106;18.046;2023-04-01T00:55:08;59.20;;;26.40;;
76729;SDS011;65653;53.106;18.046;2023-04-01T00:57:38;59.00;;;27.40;;
76729;SDS011;65653;53.106;18.046;2023-04-01T01:00:09;63.60;;;28.00;;
76729;SDS011;65653;53.106;18.046;2023-04-01T01:02:38;59.20;;;26.50;;
76729;SDS011;65653;53.106;18.046;2023-04-01T01:05:06;67.50;;;29.00;;
76729;SDS011;65653;53.106;18.046;2023-04-01T01:07:36;58.80;;;25.70;;
76729;SDS011;65653;53.106;18.046;2023-04-01T01:15:50;68.20;;;27.30;;
76729;SDS011;65653;53.106;18.046;2023-04-01T01:38:00;66.00;;;25.40;;
76729;SDS011;65653;53.106;18.046;2023-04-01T01:42:58;55.80;;;21.50;;
76729;SDS011;65653;53.106;18.046;2023-04-01T01:47:54;82.30;;;32.70;;
76729;SDS011;65653;53.106;18.046;2023-04-01T01:50:23;76.30;;;32.80;;
76729;SDS011;65653;53.106;18.046;2023-04-01T01:52:59;56.50;;;22.90;;
76729;SDS011;65653;53.106;18.046;2023-04-01T01:55:34;72.80;;;31.50;;
76729;SDS011;65653;53.106;18.046;2023-04-01T01:58:04;77.50;;;31.90;;
76729;SDS011;65653;53.106;18.046;2023-04-01T02:00:35;62.10;;;28.50;;
76729;SDS011;65653;53.106;18.046;2023-04-01T02:03:02;80.60;;;34.20;;
76729;SDS011;65653;53.106;18.046;2023-04-01T02:05:30;72.90;;;32.10;;
76729;SDS011;65653;53.106;18.046;2023-04-01T02:08:11;76.00;;;32.90;;
76729;SDS011;65653;53.106;18.046;2023-04-01T02:10:43;69.30;;;31.30;;
76729;SDS011;65653;53.106;18.046;2023-04-01T02:13:17;83.50;;;34.90;;
76729;SDS011;65653;53.106;18.046;2023-04-01T02:15:50;75.70;;;33.70;;
76729;SDS011;65653;53.106;18.046;2023-04-01T02:18:22;76.50;;;30.70;;
76729;SDS011;65653;53.106;18.046;2023-04-01T02:20:48;72.20;;;30.80;;
76729;SDS011;65653;53.106;18.046;2023-04-01T02:23:15;46.20;;;20.40;;
76729;SDS011;65653;53.106;18.046;2023-04-01T02:25:41;76.00;;;31.40;;
76729;SDS011;65653;53.106;18.046;2023-04-01T02:28:12;50.80;;;23.20;;
76729;SDS011;65653;53.106;18.046;2023-04-01T02:30:42;58.80;;;26.50;;
76729;SDS011;65653;53.106;18.046;2023-04-01T02:33:10;42.10;;;17.40;;
76729;SDS011;65653;53.106;18.046;2023-04-01T02:35:36;63.10;;;28.10;;
76729;SDS011;65653;53.106;18.046;2023-04-01T02:38:03;61.30;;;25.80;;
76729;SDS011;65653;53.106;18.046;2023-04-01T02:40:40;54.50;;;23.00;;
76729;SDS011;65653;53.106;18.046;2023-04-01T02:43:15;50.90;;;22.20;;
76729;SDS011;65653;53.106;18.046;2023-04-01T02:45:45;38.50;;;18.80;;
76729;SDS011;65653;53.106;18.046;2023-04-01T02:48:11;35.90;;;17.10;;
76729;SDS011;65653;53.106;18.046;2023-04-01T02:50:39;53.70;;;22.90;;
76729;SDS011;65653;53.106;18.046;2023-04-01T02:53:05;47.20;;;20.80;;
76729;SDS011;65653;53.106;18.046;2023-04-01T02:55:32;30.70;;;13.20;;
76729;SDS011;65653;53.106;18.046;2023-04-01T02:57:59;54.80;;;22.70;;
76729;SDS011;65653;53.106;18.046;2023-04-01T03:00:25;40.20;;;15.10;;
76729;SDS011;65653;53.106;18.046;2023-04-01T03:02:52;39.20;;;16.40;;
76729;SDS011;65653;53.106;18.046;2023-04-01T03:05:18;49.20;;;19.40;;
76729;SDS011;65653;53.106;18.046;2023-04-01T03:07:44;51.60;;;21.00;;
76729;SDS011;65653;53.106;18.046;2023-04-01T03:10:10;54.40;;;23.60;;
76729;SDS011;65653;53.106;18.046;2023-04-01T03:12:37;40.10;;;16.50;;
76729;SDS011;65653;53.106;18.046;2023-04-01T03:15:03;31.20;;;13.40;;
76729;SDS011;65653;53.106;18.046;2023-04-01T03:17:30;42.30;;;18.80;;
76729;SDS011;65653;53.106;18.046;2023-04-01T03:19:56;53.60;;;20.60;;
76729;SDS011;65653;53.106;18.046;2023-04-01T03:22:22;50.50;;;20.10;;
76729;SDS011;65653;53.106;18.046;2023-04-01T03:24:48;43.30;;;15.10;;
76729;SDS011;65653;53.106;18.046;2023-04-01T03:27:14;49.60;;;16.70;;
76729;SDS011;65653;53.106;18.046;2023-04-01T03:29:40;34.40;;;12.80;;
76729;SDS011;65653;53.106;18.046;2023-04-01T03:32:07;31.30;;;10.60;;
76729;SDS011;65653;53.106;18.046;2023-04-01T03:34:32;34.40;;;9.80;;
76729;SDS011;65653;53.106;18.046;2023-04-01T03:36:58;36.90;;;12.20;;
76729;SDS011;65653;53.106;18.046;2023-04-01T03:39:24;31.80;;;10.40;;
76729;SDS011;65653;53.106;18.046;2023-04-01T03:41:50;54.10;;;16.70;;
76729;SDS011;65653;53.106;18.046;2023-04-01T03:44:16;44.80;;;12.10;;
76729;SDS011;65653;53.106;18.046;2023-04-01T03:46:42;44.10;;;11.80;;
76729;SDS011;65653;53.106;18.046;2023-04-01T03:49:08;40.50;;;10.40;;
76729;SDS011;65653;53.106;18.046;2023-04-01T03:51:38;32.00;;;10.00;;
76729;SDS011;65653;53.106;18.046;2023-04-01T03:54:05;36.50;;;9.50;;
76729;SDS011;65653;53.106;18.046;2023-04-01T03:56:32;35.80;;;8.80;;
76729;SDS011;65653;53.106;18.046;2023-04-01T03:58:58;42.90;;;10.80;;
76729;SDS011;65653;53.106;18.046;2023-04-01T04:01:27;45.70;;;13.50;;
76729;SDS011;65653;53.106;18.046;2023-04-01T04:03:53;43.20;;;13.20;;
76729;SDS011;65653;53.106;18.046;2023-04-01T04:06:20;43.90;;;12.20;;
76729;SDS011;65653;53.106;18.046;2023-04-01T04:08:45;47.10;;;12.00;;
76729;SDS011;65653;53.106;18.046;2023-04-01T04:11:11;34.30;;;10.30;;
76729;SDS011;65653;53.106;18.046;2023-04-01T04:13:38;36.20;;;10.80;;
76729;SDS011;65653;53.106;18.046;2023-04-01T04:16:04;36.60;;;10.60;;
76729;SDS011;65653;53.106;18.046;2023-04-01T04:18:30;26.90;;;6.80;;
76729;SDS011;65653;53.106;18.046;2023-04-01T04:20:56;36.50;;;7.90;;
76729;SDS011;65653;53.106;18.046;2023-04-01T04:23:23;29.70;;;8.20;;
76729;SDS011;65653;53.106;18.046;2023-04-01T04:25:59;41.20;;;10.00;;
76729;SDS011;65653;53.106;18.046;2023-04-01T04:28:26;36.00;;;9.20;;
76729;SDS011;65653;53.106;18.046;2023-04-01T04:30:54;49.20;;;11.60;;
76729;SDS011;65653;53.106;18.046;2023-04-01T04:33:20;35.90;;;8.90;;
76729;SDS011;65653;53.106;18.046;2023-04-01T04:35:47;55.20;;;12.80;;
76729;SDS011;65653;53.106;18.046;2023-04-01T04:38:14;51.30;;;12.50;;
76729;SDS011;65653;53.106;18.046;2023-04-01T04:40:41;43.70;;;10.70;;
76729;SDS011;65653;53.106;18.046;2023-04-01T04:43:10;59.30;;;14.80;;
76729;SDS011;65653;53.106;18.046;2023-04-01T04:45:38;55.50;;;12.50;;
76729;SDS011;65653;53.106;18.046;2023-04-01T04:48:04;43.90;;;9.80;;
76729;SDS011;65653;53.106;18.046;2023-04-01T04:50:31;55.80;;;11.00;;
76729;SDS011;65653;53.106;18.046;2023-04-01T04:52:57;42.70;;;8.80;;
76729;SDS011;65653;53.106;18.046;2023-04-01T04:55:23;49.50;;;11.20;;
76729;SDS011;65653;53.106;18.046;2023-04-01T04:57:49;51.50;;;10.30;;
76729;SDS011;65653;53.106;18.046;2023-04-01T05:00:15;54.40;;;11.10;;
76729;SDS011;65653;53.106;18.046;2023-04-01T05:02:41;67.20;;;13.50;;
76729;SDS011;65653;53.106;18.046;2023-04-01T05:05:07;70.00;;;13.40;;
76729;SDS011;65653;53.106;18.046;2023-04-01T05:07:33;59.30;;;12.30;;
76729;SDS011;65653;53.106;18.046;2023-04-01T05:09:59;74.70;;;15.80;;
76729;SDS011;65653;53.106;18.046;2023-04-01T05:12:25;73.70;;;16.80;;
76729;SDS011;65653;53.106;18.046;2023-04-01T05:14:51;74.20;;;16.10;;
76729;SDS011;65653;53.106;18.046;2023-04-01T05:17:17;84.10;;;17.00;;
76729;SDS011;65653;53.106;18.046;2023-04-01T05:19:43;86.70;;;19.70;;
76729;SDS011;65653;53.106;18.046;2023-04-01T05:22:09;76.00;;;15.80;;
76729;SDS011;65653;53.106;18.046;2023-04-01T05:24:36;77.50;;;18.20;;
76729;SDS011;65653;53.106;18.046;2023-04-01T05:27:02;72.40;;;16.50;;
76729;SDS011;65653;53.106;18.046;2023-04-01T05:29:27;63.30;;;12.70;;
76729;SDS011;65653;53.106;18.046;2023-04-01T05:31:53;64.80;;;13.60;;
76729;SDS011;65653;53.106;18.046;2023-04-01T05:34:20;29.00;;;5.50;;
76729;SDS011;65653;53.106;18.046;2023-04-01T05:36:46;62.90;;;12.80;;
76729;SDS011;65653;53.106;18.046;2023-04-01T05:39:12;47.90;;;10.90;;
76729;SDS011;65653;53.106;18.046;2023-04-01T05:41:38;38.10;;;8.20;;
76729;SDS011;65653;53.106;18.046;2023-04-01T05:44:06;56.90;;;12.60;;
76729;SDS011;65653;53.106;18.046;2023-04-01T05:46:32;83.10;;;17.80;;
76729;SDS011;65653;53.106;18.046;2023-04-01T05:48:57;73.10;;;15.90;;
76729;SDS011;65653;53.106;18.046;2023-04-01T05:51:23;58.00;;;11.70;;
76729;SDS011;65653;53.106;18.046;2023-04-01T05:53:49;73.70;;;17.00;;
76729;SDS011;65653;53.106;18.046;2023-04-01T05:56:15;89.40;;;20.00;;
76729;SDS011;65653;53.106;18.046;2023-04-01T05:58:42;102.50;;;24.10;;
76729;SDS011;65653;53.106;18.046;2023-04-01T06:01:10;68.70;;;15.30;;
76729;SDS011;65653;53.106;18.046;2023-04-01T06:03:36;108.70;;;27.00;;
76729;SDS011;65653;53.106;18.046;2023-04-01T06:06:02;86.70;;;19.10;;
76729;SDS011;65653;53.106;18.046;2023-04-01T06:08:31;77.80;;;20.00;;
76729;SDS011;65653;53.106;18.046;2023-04-01T06:16:07;63.20;;;15.10;;
76729;SDS011;65653;53.106;18.046;2023-04-01T06:18:41;62.10;;;17.10;;
76729;SDS011;65653;53.106;18.046;2023-04-01T06:24:39;70.50;;;17.30;;
76729;SDS011;65653;53.106;18.046;2023-04-01T06:27:16;44.90;;;10.20;;
76729;SDS011;65653;53.106;18.046;2023-04-01T06:30:40;34.40;;;9.10;;
76729;SDS011;65653;53.106;18.046;2023-04-01T06:33:07;38.30;;;10.80;;
76729;SDS011;65653;53.106;18.046;2023-04-01T06:46:31;63.60;;;18.30;;
76729;SDS011;65653;53.106;18.046;2023-04-01T06:49:44;48.90;;;13.50;;
76729;SDS011;65653;53.106;18.046;2023-04-01T06:54:52;52.60;;;16.80;;
76729;SDS011;65653;53.106;18.046;2023-04-01T06:59:59;45.40;;;13.80;;
76729;SDS011;65653;53.106;18.046;2023-04-01T07:05:11;40.80;;;12.50;;
76729;SDS011;65653;53.106;18.046;2023-04-01T07:07:45;43.30;;;13.40;;
76729;SDS011;65653;53.106;18.046;2023-04-01T07:10:17;48.50;;;16.60;;
76729;SDS011;65653;53.106;18.046;2023-04-01T07:12:50;42.40;;;15.30;;
76729;SDS011;65653;53.106;18.046;2023-04-01T07:18:10;45.40;;;15.50;;
76729;SDS011;65653;53.106;18.046;2023-04-01T07:20:42;46.00;;;14.70;;
76729;SDS011;65653;53.106;18.046;2023-04-01T07:23:10;45.00;;;13.80;;
76729;SDS011;65653;53.106;18.046;2023-04-01T07:25:47;55.90;;;18.90;;
76729;SDS011;65653;53.106;18.046;2023-04-01T07:28:34;31.40;;;8.50;;
76729;SDS011;65653;53.106;18.046;2023-04-01T08:01:20;47.80;;;13.90;;
76729;SDS011;65653;53.106;18.046;2023-04-01T08:16:38;26.50;;;9.60;;
76729;SDS011;65653;53.106;18.046;2023-04-01T08:22:02;17.70;;;6.40;;
76729;SDS011;65653;53.106;18.046;2023-04-01T08:30:19;25.90;;;7.70;;
76729;SDS011;65653;53.106;18.046;2023-04-01T08:33:24;27.00;;;8.90;;
76729;SDS011;65653;53.106;18.046;2023-04-01T09:09:35;24.90;;;8.30;;
76729;SDS011;65653;53.106;18.046;2023-04-01T09:13:15;27.30;;;10.50;;
76729;SDS011;65653;53.106;18.046;2023-04-01T09:24:26;11.90;;;5.10;;
76729;SDS011;65653;53.106;18.046;2023-04-01T10:29:37;10.30;;;4.90;;
76729;SDS011;65653;53.106;18.046;2023-04-01T10:32:39;10.40;;;5.20;;
76729;SDS011;65653;53.106;18.046;2023-04-01T11:00:31;6.70;;;3.40;;
76729;SDS011;65653;53.106;18.046;2023-04-01T11:06:11;7.80;;;3.20;;
76729;SDS011;65653;53.106;18.046;2023-04-01T11:25:47;5.00;;;3.00;;
76729;SDS011;65653;53.106;18.046;2023-04-01T11:39:59;5.20;;;3.10;;
76729;SDS011;65653;53.106;18.046;2023-04-01T11:45:16;6.70;;;3.30;;
76729;SDS011;65653;53.106;18.046;2023-04-01T11:56:11;6.90;;;4.20;;
76729;SDS011;65653;53.106;18.046;2023-04-01T12:01:36;4.80;;;3.30;;
76729;SDS011;65653;53.106;18.046;2023-04-01T12:07:15;4.30;;;2.70;;
76729;SDS011;65653;53.106;18.046;2023-04-01T12:10:18;2.30;;;2.00;;
76729;SDS011;65653;53.106;18.046;2023-04-01T12:12:48;2.80;;;2.10;;
76729;SDS011;65653;53.106;18.046;2023-04-01T12:15:59;7.30;;;4.10;;
76729;SDS011;65653;53.106;18.046;2023-04-01T12:18:53;3.60;;;2.10;;
76729;SDS011;65653;53.106;18.046;2023-04-01T12:27:19;3.90;;;3.00;;
76729;SDS011;65653;53.106;18.046;2023-04-01T12:32:40;3.70;;;2.50;;
76729;SDS011;65653;53.106;18.046;2023-04-01T12:46:54;6.80;;;5.00;;
76729;SDS011;65653;53.106;18.046;2023-04-01T12:55:49;10.60;;;7.70;;
76729;SDS011;65653;53.106;18.046;2023-04-01T12:58:29;3.90;;;2.80;;
76729;SDS011;65653;53.106;18.046;2023-04-01T13:01:29;4.30;;;3.50;;
76729;SDS011;65653;53.106;18.046;2023-04-01T13:04:34;3.90;;;2.80;;
76729;SDS011;65653;53.106;18.046;2023-04-01T13:16:08;2.80;;;2.00;;
76729;SDS011;65653;53.106;18.046;2023-04-01T13:24:28;4.70;;;3.60;;
76729;SDS011;65653;53.106;18.046;2023-04-01T13:27:02;4.30;;;3.90;;
76729;SDS011;65653;53.106;18.046;2023-04-01T13:52:21;2.90;;;2.70;;
76729;SDS011;65653;53.106;18.046;2023-04-01T13:57:59;2.60;;;1.90;;
76729;SDS011;65653;53.106;18.046;2023-04-01T14:07:04;5.80;;;4.50;;
76729;SDS011;65653;53.106;18.046;2023-04-01T14:09:59;7.20;;;5.00;;
76729;SDS011;65653;53.106;18.046;2023-04-01T14:24:55;4.80;;;4.00;;
76729;SDS011;65653;53.106;18.046;2023-04-01T14:45:30;4.90;;;3.20;;
76729;SDS011;65653;53.106;18.046;2023-04-01T14:48:23;8.70;;;5.40;;
76729;SDS011;65653;53.106;18.046;2023-04-01T14:51:03;11.40;;;7.00;;
76729;SDS011;65653;53.106;18.046;2023-04-01T14:53:39;4.10;;;2.50;;
76729;SDS011;65653;53.106;18.046;2023-04-01T14:56:11;10.50;;;6.80;;
76729;SDS011;65653;53.106;18.046;2023-04-01T14:58:57;5.60;;;3.50;;
76729;SDS011;65653;53.106;18.046;2023-04-01T15:06:51;4.70;;;3.20;;
76729;SDS011;65653;53.106;18.046;2023-04-01T15:13:05;9.00;;;5.70;;
76729;SDS011;65653;53.106;18.046;2023-04-01T15:21:05;12.60;;;7.80;;
76729;SDS011;65653;53.106;18.046;2023-04-01T15:32:02;13.50;;;8.00;;
76729;SDS011;65653;53.106;18.046;2023-04-01T15:37:13;7.10;;;4.80;;
76729;SDS011;65653;53.106;18.046;2023-04-01T15:40:51;5.80;;;3.40;;
76729;SDS011;65653;53.106;18.046;2023-04-01T15:48:31;5.60;;;3.70;;
76729;SDS011;65653;53.106;18.046;2023-04-01T16:11:28;3.60;;;2.50;;
76729;SDS011;65653;53.106;18.046;2023-04-01T16:14:21;4.50;;;2.70;;
76729;SDS011;65653;53.106;18.046;2023-04-01T16:17:05;2.80;;;2.10;;
76729;SDS011;65653;53.106;18.046;2023-04-01T16:19:53;7.10;;;3.90;;
76729;SDS011;65653;53.106;18.046;2023-04-01T16:22:28;3.50;;;2.70;;
76729;SDS011;65653;53.106;18.046;2023-04-01T16:28:09;10.50;;;6.40;;
76729;SDS011;65653;53.106;18.046;2023-04-01T16:31:25;5.50;;;3.40;;
76729;SDS011;65653;53.106;18.046;2023-04-01T16:34:03;9.10;;;5.50;;
76729;SDS011;65653;53.106;18.046;2023-04-01T16:36:37;3.10;;;2.10;;
76729;SDS011;65653;53.106;18.046;2023-04-01T16:47:32;10.00;;;4.90;;
76729;SDS011;65653;53.106;18.046;2023-04-01T16:50:19;5.00;;;2.80;;
76729;SDS011;65653;53.106;18.046;2023-04-01T16:55:33;6.20;;;3.20;;
76729;SDS011;65653;53.106;18.046;2023-04-01T16:58:23;3.20;;;1.90;;
76729;SDS011;65653;53.106;18.046;2023-04-01T17:01:06;5.40;;;3.50;;
76729;SDS011;65653;53.106;18.046;2023-04-01T17:04:04;10.90;;;3.90;;
76729;SDS011;65653;53.106;18.046;2023-04-01T17:06:50;6.10;;;4.40;;
76729;SDS011;65653;53.106;18.046;2023-04-01T17:15:16;6.20;;;3.30;;
76729;SDS011;65653;53.106;18.046;2023-04-01T17:18:11;6.40;;;3.30;;
76729;SDS011;65653;53.106;18.046;2023-04-01T17:20:50;3.80;;;2.40;;
76729;SDS011;65653;53.106;18.046;2023-04-01T17:26:01;5.10;;;2.80;;
76729;SDS011;65653;53.106;18.046;2023-04-01T17:28:57;2.60;;;1.40;;
76729;SDS011;65653;53.106;18.046;2023-04-01T17:31:45;2.30;;;1.50;;
76729;SDS011;65653;53.106;18.046;2023-04-01T17:34:38;5.50;;;2.90;;
76729;SDS011;65653;53.106;18.046;2023-04-01T17:53:35;3.30;;;2.60;;
76729;SDS011;65653;53.106;18.046;2023-04-01T18:04:15;3.20;;;2.60;;
76729;SDS011;65653;53.106;18.046;2023-04-01T18:13:08;4.10;;;2.20;;
76729;SDS011;65653;53.106;18.046;2023-04-01T18:21:46;6.90;;;4.20;;
76729;SDS011;65653;53.106;18.046;2023-04-01T18:24:16;10.10;;;4.10;;
76729;SDS011;65653;53.106;18.046;2023-04-01T18:27:06;12.00;;;7.00;;
76729;SDS011;65653;53.106;18.046;2023-04-01T18:40:41;11.20;;;6.40;;
76729;SDS011;65653;53.106;18.046;2023-04-01T18:45:58;7.20;;;4.50;;
76729;SDS011;65653;53.106;18.046;2023-04-01T18:51:32;3.90;;;3.00;;
76729;SDS011;65653;53.106;18.046;2023-04-01T18:54:16;6.70;;;3.60;;
76729;SDS011;65653;53.106;18.046;2023-04-01T18:56:48;4.80;;;3.20;;
76729;SDS011;65653;53.106;18.046;2023-04-01T19:05:12;14.30;;;6.70;;
76729;SDS011;65653;53.106;18.046;2023-04-01T19:18:30;7.60;;;3.70;;
76729;SDS011;65653;53.106;18.046;2023-04-01T19:37:44;7.80;;;4.70;;
76729;SDS011;65653;53.106;18.046;2023-04-01T19:43:22;19.90;;;9.70;;
76729;SDS011;65653;53.106;18.046;2023-04-01T19:51:34;9.50;;;4.30;;
76729;SDS011;65653;53.106;18.046;2023-04-01T19:56:49;21.40;;;10.40;;
76729;SDS011;65653;53.106;18.046;2023-04-01T19:59:29;8.50;;;4.50;;
76729;SDS011;65653;53.106;18.046;2023-04-01T20:04:50;8.70;;;4.30;;
76729;SDS011;65653;53.106;18.046;2023-04-01T20:07:23;17.40;;;7.90;;
76729;SDS011;65653;53.106;18.046;2023-04-01T20:10:05;7.10;;;3.30;;
76729;SDS011;65653;53.106;18.046;2023-04-01T20:18:23;7.10;;;4.00;;
76729;SDS011;65653;53.106;18.046;2023-04-01T20:23:50;8.40;;;4.50;;
76729;SDS011;65653;53.106;18.046;2023-04-01T20:26:22;17.60;;;7.80;;
76729;SDS011;65653;53.106;18.046;2023-04-01T20:31:43;7.20;;;3.40;;
76729;SDS011;65653;53.106;18.046;2023-04-01T20:34:20;9.90;;;4.50;;
76729;SDS011;65653;53.106;18.046;2023-04-01T20:37:15;8.50;;;4.80;;
76729;SDS011;65653;53.106;18.046;2023-04-01T20:39:45;4.80;;;3.50;;
76729;SDS011;65653;53.106;18.046;2023-04-01T20:48:07;5.00;;;2.80;;
76729;SDS011;65653;53.106;18.046;2023-04-01T20:59:08;18.20;;;7.40;;
76729;SDS011;65653;53.106;18.046;2023-04-01T21:02:18;31.30;;;12.50;;
76729;SDS011;65653;53.106;18.046;2023-04-01T21:05:09;25.60;;;10.90;;
76729;SDS011;65653;53.106;18.046;2023-04-01T21:08:02;33.70;;;11.70;;
76729;SDS011;65653;53.106;18.046;2023-04-01T21:16:19;27.20;;;10.70;;
76729;SDS011;65653;53.106;18.046;2023-04-01T21:19:26;19.80;;;6.80;;
76729;SDS011;65653;53.106;18.046;2023-04-01T21:25:14;6.70;;;4.20;;
76729;SDS011;65653;53.106;18.046;2023-04-01T21:36:12;31.40;;;13.60;;
76729;SDS011;65653;53.106;18.046;2023-04-01T21:42:17;26.90;;;10.50;;
76729;SDS011;65653;53.106;18.046;2023-04-01T22:08:06;30.70;;;10.70;;
76729;SDS011;65653;53.106;18.046;2023-04-01T22:15:59;12.20;;;5.50;;
76729;SDS011;65653;53.106;18.046;2023-04-01T22:18:32;30.50;;;13.30;;
76729;SDS011;65653;53.106;18.046;2023-04-01T22:23:58;69.50;;;29.50;;
76729;SDS011;65653;53.106;18.046;2023-04-01T22:26:33;22.00;;;12.10;;
76729;SDS011;65653;53.106;18.046;2023-04-01T22:32:14;39.90;;;16.10;;
76729;SDS011;65653;53.106;18.046;2023-04-01T22:34:55;45.50;;;18.90;;
76729;SDS011;65653;53.106;18.046;2023-04-01T22:40:14;36.70;;;15.00;;
76729;SDS011;65653;53.106;18.046;2023-04-01T22:42:44;29.50;;;11.40;;
76729;SDS011;65653;53.106;18.046;2023-04-01T22:50:36;22.40;;;9.50;;
76729;SDS011;65653;53.106;18.046;2023-04-01T22:56:07;15.60;;;7.30;;
76729;SDS011;65653;53.106;18.046;2023-04-01T22:58:43;10.80;;;5.50;;
76729;SDS011;65653;53.106;18.046;2023-04-01T23:01:17;10.40;;;5.70;;
76729;SDS011;65653;53.106;18.046;2023-04-01T23:03:50;5.90;;;3.60;;
76729;SDS011;65653;53.106;18.046;2023-04-01T23:06:20;9.40;;;5.10;;
76729;SDS011;65653;53.106;18.046;2023-04-01T23:08:54;6.60;;;3.90;;
76729;SDS011;65653;53.106;18.046;2023-04-01T23:11:36;8.00;;;4.00;;
76729;SDS011;65653;53.106;18.046;2023-04-01T23:19:37;9.40;;;4.10;;
76729;SDS011;65653;53.106;18.046;2023-04-01T23:24:50;16.30;;;7.70;;
76729;SDS011;65653;53.106;18.046;2023-04-01T23:27:40;5.40;;;3.70;;
76729;SDS011;65653;53.106;18.046;2023-04-01T23:33:26;6.10;;;3.70;;
76729;SDS011;65653;53.106;18.046;2023-04-01T23:38:40;7.90;;;4.70;;
76729;SDS011;65653;53.106;18.046;2023-04-01T23:41:08;11.40;;;6.00;;
76729;SDS011;65653;53.106;18.046;2023-04-01T23:44:01;14.60;;;6.90;;
76729;SDS011;65653;53.106;18.046;2023-04-01T23:46:31;18.70;;;7.70;;
76729;SDS011;65653;53.106;18.046;2023-04-01T23:48:59;6.00;;;2.90;;
76729;SDS011;65653;53.106;18.046;2023-04-01T23:51:27;8.00;;;4.20;;
76729;SDS011;65653;53.106;18.046;2023-04-01T23:54:03;11.20;;;5.70;;
76729;SDS011;65653;53.106;18.046;2023-04-01T23:56:39;20.20;;;10.00;;
76729;SDS011;65653;53.106;18.046;2023-04-01T23:59:22;6.80;;;3.70;;
